Warrensburg, MO

9:59 PM CST on February 28, 2015 (GMT -0600)
Sedalia Memorial | Change Station
CLOSE
Current Station
Airport
Location: Sedalia,
Elevation: 909 ft
Nearby Weather Stations
Active Advisory: Winter Weather Advisory Active Notice: Local Storm Report

Elev 909 ft 38.71 °N, 93.18 °W | Updated 6 minutes ago

Snow
Snow
24 °F
Feels Like 20 °F
N
4
Wind Variable Wind from ENE

Today
High -- | Low -- °F
--% Chance of Precip.
Yesterday
High -- | Low -- °F
Precip. -- in
6:48 AM 6:06 PM
Waxing Gibbous, 82% visible
Pressure 30.43 in
Visibility 1.2 miles
Clouds
Windchill 20 °F
Dew Point 21 °F
Humidity 88%
Rainfall 0.39 in
Snow Depth Not available.
UV Not available.
Pollen .50 out of 12
Air Quality Not available.
Flu Activity Not available.
METAR KDMO 010353Z AUTO 07003KT 1 1/4SM -SN BR M04/M06 A3039 RMK AO2 SLP305 P0003 T10441061 $

More Conditions Fewer Conditions

Pressure 30.43 in
Visibility 1.2 miles
Clouds
Windchill 20 °F
Dew Point 21 °F
Humidity 88%
Rainfall 0.39 in
Snow Depth Not available.
UV Not available.
Pollen .50 out of 12
Air Quality Not available.
Flu Activity Not available.
METAR KDMO 010353Z AUTO 07003KT 1 1/4SM -SN BR M04/M06 A3039 RMK AO2 SLP305 P0003 T10441061 $

More Conditions Fewer Conditions

10-Day Weather Forecast

Almanac

Astronomy

Feb. 28, 2015 Rise Set
Actual Time
Civil Twilight
Nautical Twilight
Astronomical Twilight
Moon
Length of Visible Light
Length of Day
Tomorrow will be .
, % of the Moon is Illuminated

Today's Extremes

State Highs State Lows

Community

WunderPhotos

Upload Photos

1,801,289 photos uploaded!

WunderBlogs® & News

Nearby

Air Quality

  Air Quality AQ Index Pollutant
Not available.

Snow Depth

Station Depth Elevation

Earthquake Activity

City Distance Mag. Time & Date
Minimum magnitude displayed is 2.5.

Coastal Water Temperatures

Place Temperature

Nearby Weather Stations

Winter Weather Advisory
Statement as of 9:56 PM CST on February 28, 2015

... Winter Weather Advisory remains in effect until 6 PM CST
Sunday...

A Winter Weather Advisory for snow remains in effect until 6 PM CST
Sunday.

* Timing... a second round of snow has begun to develop across the
region this evening... and will continue through Sunday morning.

* Snow accumulations... an additional one to two inches of snow are
possible through late Sunday morning with this secondary band of
snow. Total accumulations will range from 3 to 6 inches.

* Impacts... travel may be hazardous... .especially on any
untreated roadways while it is snowing.

Precautionary/preparedness actions...

A Winter Weather Advisory means that periods of snow... sleet... or
freezing rain will cause travel difficulties. Be prepared for
slippery roads and limited visibilities... and use caution while
driving.